createdAt,value
2019-02-02T00:00:59.624Z,0
2019-02-02T00:01:44.969Z,0
2019-02-02T00:02:45.123Z,0
2019-02-02T00:03:44.989Z,0
2019-02-02T00:04:45.013Z,0
2019-02-02T00:05:45.018Z,0
2019-02-02T00:06:45.025Z,0
2019-02-02T00:07:45.048Z,0
2019-02-02T00:08:45.053Z,0
2019-02-02T00:09:45.091Z,0
2019-02-02T00:11:45.189Z,0
2019-02-02T00:12:45.108Z,0
2019-02-02T00:13:59.777Z,0
2019-02-02T00:14:47.753Z,0
2019-02-02T00:15:45.155Z,0
2019-02-02T00:16:45.155Z,0
2019-02-02T00:17:45.303Z,0
2019-02-02T00:18:45.175Z,0
2019-02-02T00:19:59.858Z,0
2019-02-02T00:20:45.243Z,0
2019-02-02T00:21:45.217Z,0
2019-02-02T00:23:45.236Z,0
2019-02-02T00:24:45.254Z,0
2019-02-02T00:25:45.262Z,0
2019-02-02T00:26:45.283Z,0
2019-02-02T00:27:48.835Z,0
2019-02-02T00:28:45.301Z,0
2019-02-02T00:29:45.315Z,0
2019-02-02T00:30:45.331Z,0
2019-02-02T00:31:45.333Z,0
2019-02-02T00:33:00.008Z,0
2019-02-02T00:33:45.398Z,0
2019-02-02T00:34:45.372Z,0
2019-02-02T00:35:45.384Z,0
2019-02-02T00:36:45.400Z,0
2019-02-02T00:37:45.426Z,0
2019-02-02T00:38:45.425Z,0
2019-02-02T00:39:45.435Z,0
2019-02-02T00:40:45.449Z,0
2019-02-02T00:41:45.463Z,0
2019-02-02T00:42:45.470Z,0
2019-02-02T00:43:45.835Z,0
2019-02-02T00:45:00.313Z,0
2019-02-02T00:46:00.250Z,0
2019-02-02T00:46:45.519Z,0
2019-02-02T00:49:00.215Z,0
2019-02-02T00:49:45.561Z,0
2019-02-02T00:50:45.570Z,0
2019-02-02T00:51:45.592Z,0
2019-02-02T00:52:45.592Z,0
2019-02-02T00:53:45.606Z,0
2019-02-02T00:54:45.623Z,0
2019-02-02T00:55:45.628Z,0
2019-02-02T00:56:45.647Z,0
2019-02-02T00:57:57.677Z,0
2019-02-02T00:59:00.330Z,0
2019-02-02T01:00:00.102Z,0
2019-02-02T01:00:45.690Z,0
2019-02-02T01:02:45.722Z,0
2019-02-02T01:05:00.615Z,0
2019-02-02T01:05:45.763Z,0
2019-02-02T01:06:45.867Z,0
2019-02-02T01:07:45.784Z,0
2019-02-02T01:08:45.788Z,0
2019-02-02T01:09:45.902Z,0
2019-02-02T01:10:45.842Z,0
2019-02-02T01:11:45.827Z,0
2019-02-02T01:12:45.843Z,0
2019-02-02T01:13:45.855Z,0
2019-02-02T01:14:45.617Z,0
2019-02-02T01:15:45.875Z,0
2019-02-02T01:16:45.898Z,0
2019-02-02T01:18:00.575Z,0
2019-02-02T01:18:45.916Z,0
2019-02-02T01:19:45.928Z,0
2019-02-02T01:21:00.599Z,0
2019-02-02T01:21:45.951Z,0
2019-02-02T01:22:45.962Z,0
2019-02-02T01:23:45.974Z,0
2019-02-02T01:24:45.987Z,0
2019-02-02T01:25:45.998Z,0
2019-02-02T01:26:46.014Z,0
2019-02-02T01:27:46.024Z,0
2019-02-02T01:28:46.041Z,0
2019-02-02T01:29:46.077Z,0
2019-02-02T01:30:45.820Z,0
2019-02-02T01:31:46.075Z,0
2019-02-02T01:32:46.094Z,0
2019-02-02T01:33:46.102Z,0
2019-02-02T01:34:46.114Z,0
2019-02-02T01:36:00.783Z,0
2019-02-02T01:36:46.148Z,0
2019-02-02T01:37:46.147Z,0
2019-02-02T01:38:46.159Z,0
2019-02-02T01:39:46.178Z,0
2019-02-02T01:40:46.193Z,0
2019-02-02T01:41:46.218Z,0
2019-02-02T01:42:46.210Z,0
2019-02-02T01:43:46.223Z,0
2019-02-02T01:44:46.360Z,0
2019-02-02T01:45:46.247Z,0
2019-02-02T01:48:00.934Z,0
2019-02-02T01:48:46.281Z,0
2019-02-02T01:49:46.301Z,0
2019-02-02T01:50:46.306Z,0
2019-02-02T01:51:46.389Z,0
2019-02-02T01:52:46.330Z,0
2019-02-02T01:53:46.343Z,0
2019-02-02T01:54:46.361Z,0
2019-02-02T01:55:46.380Z,0
2019-02-02T01:56:46.383Z,0
2019-02-02T01:57:46.394Z,0
2019-02-02T01:58:46.404Z,0
2019-02-02T01:59:46.432Z,0
2019-02-02T02:00:46.439Z,0
2019-02-02T02:01:48.841Z,0
2019-02-02T02:02:46.454Z,0
2019-02-02T02:03:46.467Z,0
2019-02-02T02:04:46.483Z,0
2019-02-02T02:05:46.493Z,0
2019-02-02T02:06:46.604Z,0
2019-02-02T02:08:01.185Z,0
2019-02-02T02:08:46.530Z,0
2019-02-02T02:09:46.543Z,0
2019-02-02T02:10:46.556Z,0
2019-02-02T02:11:46.570Z,0
2019-02-02T02:13:01.245Z,0
2019-02-02T02:13:46.594Z,0
2019-02-02T02:14:46.624Z,0
2019-02-02T02:15:46.615Z,0
2019-02-02T02:16:46.634Z,0
2019-02-02T02:17:46.638Z,0
2019-02-02T02:18:46.654Z,0
2019-02-02T02:20:46.684Z,0
2019-02-02T02:21:46.710Z,0
2019-02-02T02:22:48.595Z,0
2019-02-02T02:24:01.374Z,0
2019-02-02T02:24:46.728Z,0
2019-02-02T02:25:46.748Z,0
2019-02-02T02:26:46.855Z,0
2019-02-02T02:27:46.767Z,0
2019-02-02T02:28:46.785Z,0
2019-02-02T02:29:46.786Z,0
2019-02-02T02:30:49.770Z,0
2019-02-02T02:32:01.480Z,0
2019-02-02T02:32:46.834Z,0
2019-02-02T02:33:46.837Z,0
2019-02-02T02:34:47.008Z,0
2019-02-02T02:36:46.878Z,0
2019-02-02T02:38:46.908Z,0
2019-02-02T02:40:01.576Z,0
2019-02-02T02:40:46.936Z,0
2019-02-02T02:41:46.936Z,0
2019-02-02T02:42:46.954Z,0
2019-02-02T02:43:46.963Z,0
2019-02-02T02:44:46.970Z,0
2019-02-02T02:45:46.989Z,0
2019-02-02T02:46:46.996Z,0
2019-02-02T02:47:47.222Z,0
2019-02-02T02:48:47.045Z,0
2019-02-02T02:50:01.698Z,0
2019-02-02T02:50:47.048Z,0
2019-02-02T02:51:47.065Z,0
2019-02-02T02:53:01.729Z,0
2019-02-02T02:53:47.091Z,0
2019-02-02T02:56:01.767Z,0
2019-02-02T02:56:47.131Z,0
2019-02-02T02:57:47.135Z,0
2019-02-02T02:58:49.003Z,0
2019-02-02T02:59:47.159Z,0
2019-02-02T03:00:46.925Z,0
2019-02-02T03:01:47.178Z,0
2019-02-02T03:02:47.200Z,0
2019-02-02T03:04:01.871Z,0
2019-02-02T03:04:47.215Z,0
2019-02-02T03:05:47.235Z,0
2019-02-02T03:06:47.247Z,0
2019-02-02T03:07:47.254Z,0
2019-02-02T03:08:47.272Z,0
2019-02-02T03:09:47.465Z,0
2019-02-02T03:11:01.954Z,0
2019-02-02T03:11:47.302Z,0
2019-02-02T03:12:47.318Z,0
2019-02-02T03:14:47.338Z,0
2019-02-02T03:15:47.350Z,0
2019-02-02T03:16:47.365Z,0
2019-02-02T03:17:47.393Z,0
2019-02-02T03:20:02.062Z,0
2019-02-02T03:21:02.077Z,0
2019-02-02T03:21:50.974Z,0
2019-02-02T03:22:47.444Z,0
2019-02-02T03:23:47.447Z,0
2019-02-02T03:24:47.463Z,0
2019-02-02T03:25:47.470Z,0
2019-02-02T03:27:02.154Z,0
2019-02-02T03:27:47.502Z,0
2019-02-02T03:29:00.308Z,0
2019-02-02T03:29:47.521Z,0
2019-02-02T03:30:47.549Z,0
2019-02-02T03:31:50.958Z,0
2019-02-02T03:32:47.572Z,0
2019-02-02T03:34:02.249Z,0
2019-02-02T03:34:47.596Z,0
2019-02-02T03:35:47.597Z,0
2019-02-02T03:38:47.654Z,0
2019-02-02T03:39:47.681Z,0
2019-02-02T03:40:47.652Z,0
2019-02-02T03:41:47.686Z,0
2019-02-02T03:43:02.340Z,0
2019-02-02T03:43:47.869Z,0
2019-02-02T03:44:47.709Z,0
2019-02-02T03:45:48.260Z,0
2019-02-02T03:46:47.724Z,0
2019-02-02T03:47:47.777Z,0
2019-02-02T03:48:47.754Z,0
2019-02-02T03:49:47.761Z,0
2019-02-02T03:50:47.771Z,0
2019-02-02T03:51:47.788Z,0
2019-02-02T03:53:02.457Z,0
2019-02-02T03:53:48.659Z,0
2019-02-02T03:54:47.819Z,0
2019-02-02T03:55:47.847Z,0
2019-02-02T03:56:47.853Z,0
2019-02-02T03:57:47.876Z,0
2019-02-02T03:59:11.520Z,0
2019-02-02T03:59:47.889Z,0
2019-02-02T04:00:47.899Z,0
2019-02-02T04:01:47.669Z,0
2019-02-02T04:02:47.915Z,0
2019-02-02T04:04:02.594Z,0
2019-02-02T04:04:47.939Z,0
2019-02-02T04:05:47.953Z,0
2019-02-02T04:06:48.027Z,0
2019-02-02T04:07:47.981Z,0
2019-02-02T04:08:47.996Z,0
2019-02-02T04:09:48.006Z,0
2019-02-02T04:10:48.014Z,0
2019-02-02T04:11:50.662Z,0
2019-02-02T04:12:48.070Z,0
2019-02-02T04:13:48.051Z,0
2019-02-02T04:15:17.600Z,0
2019-02-02T04:15:48.095Z,0
2019-02-02T04:16:48.100Z,0
2019-02-02T04:17:48.107Z,0
2019-02-02T04:18:48.128Z,0
2019-02-02T04:19:48.119Z,0
2019-02-02T04:20:48.135Z,0
2019-02-02T04:21:48.143Z,0
2019-02-02T04:22:48.167Z,0
2019-02-02T04:24:02.831Z,0
2019-02-02T04:24:48.196Z,0
2019-02-02T04:25:48.303Z,0
2019-02-02T04:26:48.210Z,0
2019-02-02T04:28:02.879Z,0
2019-02-02T04:28:48.228Z,0
2019-02-02T04:29:48.239Z,0
2019-02-02T04:31:02.918Z,0
2019-02-02T04:31:48.284Z,0
2019-02-02T04:34:48.301Z,0
2019-02-02T04:35:48.324Z,0
2019-02-02T04:36:48.327Z,0
2019-02-02T04:37:48.342Z,0
2019-02-02T04:40:03.024Z,0
2019-02-02T04:40:48.377Z,0
2019-02-02T04:41:48.386Z,0
2019-02-02T04:42:48.159Z,0
2019-02-02T04:43:48.411Z,0
2019-02-02T04:44:48.422Z,0
2019-02-02T04:46:03.096Z,0
2019-02-02T04:46:48.459Z,0
2019-02-02T04:47:48.216Z,0
2019-02-02T04:48:48.470Z,0
2019-02-02T04:49:48.484Z,0
2019-02-02T04:50:48.495Z,0
2019-02-02T04:51:48.507Z,0
2019-02-02T04:52:48.524Z,0
2019-02-02T04:53:48.538Z,0
2019-02-02T04:54:48.643Z,0
2019-02-02T04:56:03.216Z,0
2019-02-02T04:57:03.234Z,0
2019-02-02T04:57:48.329Z,0
2019-02-02T04:59:48.611Z,0
2019-02-02T05:00:48.614Z,0
2019-02-02T05:01:48.633Z,0
2019-02-02T05:02:48.646Z,0
2019-02-02T05:03:48.650Z,0
2019-02-02T05:04:48.662Z,0
2019-02-02T05:05:48.428Z,0
2019-02-02T05:06:48.803Z,0
2019-02-02T05:07:48.707Z,0
2019-02-02T05:08:48.711Z,0
2019-02-02T05:09:48.730Z,0
2019-02-02T05:10:48.742Z,0
2019-02-02T05:11:48.748Z,0
2019-02-02T05:12:48.768Z,0
2019-02-02T05:14:03.431Z,0
2019-02-02T05:14:48.798Z,0
2019-02-02T05:15:48.799Z,0
2019-02-02T05:16:48.806Z,0
2019-02-02T05:18:03.486Z,0
2019-02-02T05:18:48.836Z,0
2019-02-02T05:19:48.843Z,0
2019-02-02T05:20:48.858Z,0
2019-02-02T05:21:48.868Z,0
2019-02-02T05:23:03.545Z,0
2019-02-02T05:23:48.893Z,0
2019-02-02T05:24:49.039Z,0
2019-02-02T05:25:49.030Z,0
2019-02-02T05:27:03.589Z,0
2019-02-02T05:27:48.937Z,0
2019-02-02T05:28:49.070Z,0
2019-02-02T05:29:49.097Z,0
2019-02-02T05:30:49.108Z,0
2019-02-02T05:31:49.126Z,0
2019-02-02T05:32:49.007Z,0
2019-02-02T05:34:03.680Z,0
2019-02-02T05:34:49.026Z,0
2019-02-02T05:35:49.043Z,0
2019-02-02T05:36:49.047Z,0
2019-02-02T05:37:48.843Z,0
2019-02-02T05:38:49.201Z,0
2019-02-02T05:39:49.325Z,0
2019-02-02T05:40:49.101Z,0
2019-02-02T05:41:49.105Z,0
2019-02-02T05:42:49.180Z,0
2019-02-02T05:44:03.804Z,0
2019-02-02T05:44:49.145Z,0
2019-02-02T05:45:49.169Z,0
2019-02-02T05:47:49.179Z,0
2019-02-02T05:48:49.194Z,0
2019-02-02T05:50:03.869Z,0
2019-02-02T05:50:49.318Z,0
2019-02-02T05:51:49.229Z,0
2019-02-02T05:52:49.246Z,0
2019-02-02T05:53:49.271Z,0
2019-02-02T05:54:49.276Z,0
2019-02-02T05:55:49.284Z,0
2019-02-02T05:56:49.289Z,0
2019-02-02T05:57:49.360Z,0
2019-02-02T05:58:49.314Z,0
2019-02-02T05:59:59.646Z,0
2019-02-02T06:00:49.340Z,0
2019-02-02T06:01:49.354Z,0
2019-02-02T06:02:49.362Z,0
2019-02-02T06:03:49.371Z,0
2019-02-02T06:04:49.382Z,0
2019-02-02T06:06:04.061Z,0
2019-02-02T06:07:49.422Z,0
2019-02-02T06:08:49.432Z,0
2019-02-02T06:09:49.446Z,0
2019-02-02T06:10:49.459Z,0
2019-02-02T06:11:49.469Z,0
2019-02-02T06:13:04.146Z,0
2019-02-02T06:13:49.495Z,0
2019-02-02T06:14:49.514Z,0
2019-02-02T06:15:49.525Z,0
2019-02-02T06:16:49.539Z,0
2019-02-02T06:18:04.206Z,0
2019-02-02T06:18:49.557Z,0
2019-02-02T06:19:49.625Z,0
2019-02-02T06:21:04.244Z,0
2019-02-02T06:21:49.648Z,0
2019-02-02T06:22:49.704Z,4
2019-02-02T06:23:49.613Z,4
2019-02-02T06:24:52.408Z,4
2019-02-02T06:25:49.694Z,4
2019-02-02T06:26:49.650Z,4
2019-02-02T06:27:49.670Z,4
2019-02-02T06:28:49.678Z,4
2019-02-02T06:29:49.683Z,4
2019-02-02T06:30:49.805Z,8
2019-02-02T06:32:14.399Z,4
2019-02-02T06:32:49.728Z,8
2019-02-02T06:34:04.403Z,8
2019-02-02T06:34:49.501Z,12
2019-02-02T06:35:49.771Z,12
2019-02-02T06:36:49.773Z,8
2019-02-02T06:37:49.539Z,12
2019-02-02T06:38:49.903Z,16
2019-02-02T06:39:49.809Z,16
2019-02-02T06:40:49.820Z,16
2019-02-02T06:41:49.832Z,16
2019-02-02T06:44:04.525Z,20
2019-02-02T06:44:49.924Z,20
2019-02-02T06:46:04.544Z,24
2019-02-02T06:46:51.033Z,24
2019-02-02T06:47:49.910Z,28
2019-02-02T06:48:49.918Z,32
2019-02-02T06:49:49.932Z,28
2019-02-02T06:50:49.940Z,32
2019-02-02T06:51:49.951Z,36
2019-02-02T06:53:04.629Z,40
2019-02-02T06:53:49.978Z,44
2019-02-02T06:54:49.997Z,48
2019-02-02T06:55:50.007Z,60
2019-02-02T06:56:50.017Z,60
2019-02-02T06:57:50.028Z,68
2019-02-02T06:58:50.038Z,72
2019-02-02T06:59:50.051Z,80
2019-02-02T07:00:50.065Z,80
2019-02-02T07:01:50.083Z,88
2019-02-02T07:03:04.747Z,96
2019-02-02T07:03:50.101Z,100
2019-02-02T07:04:50.110Z,108
2019-02-02T07:05:50.130Z,112
2019-02-02T07:06:50.156Z,112
2019-02-02T07:07:50.148Z,120
2019-02-02T07:09:04.824Z,120
2019-02-02T07:10:04.952Z,132
2019-02-02T07:10:50.297Z,140
2019-02-02T07:11:50.197Z,148
2019-02-02T07:12:49.961Z,152
2019-02-02T07:13:50.229Z,148
2019-02-02T07:14:50.230Z,148
2019-02-02T07:16:04.908Z,144
2019-02-02T07:16:50.260Z,144
2019-02-02T07:17:50.275Z,156
2019-02-02T07:18:50.276Z,156
2019-02-02T07:20:04.951Z,176
2019-02-02T07:20:50.318Z,184
2019-02-02T07:21:50.315Z,200
2019-02-02T07:22:50.328Z,200
2019-02-02T07:24:04.755Z,204
2019-02-02T07:25:05.070Z,208
2019-02-02T07:25:50.366Z,216
2019-02-02T07:26:50.393Z,216
2019-02-02T07:27:50.394Z,208
2019-02-02T07:28:50.501Z,208
2019-02-02T07:29:50.413Z,216
2019-02-02T07:30:50.425Z,212
2019-02-02T07:31:50.436Z,204
2019-02-02T07:33:05.111Z,204
2019-02-02T07:33:50.466Z,212
2019-02-02T07:34:50.480Z,228
2019-02-02T07:36:05.145Z,240
2019-02-02T07:37:05.173Z,244
2019-02-02T07:37:50.515Z,252
2019-02-02T07:38:50.521Z,256
2019-02-02T07:39:50.542Z,268
2019-02-02T07:41:05.209Z,280
2019-02-02T07:41:50.558Z,276
2019-02-02T07:42:50.573Z,280
2019-02-02T07:43:50.582Z,296
2019-02-02T07:44:50.591Z,316
2019-02-02T07:45:50.609Z,344
2019-02-02T07:46:50.629Z,356
2019-02-02T07:47:50.629Z,348
2019-02-02T07:48:50.642Z,348
2019-02-02T07:49:50.658Z,356
2019-02-02T07:50:50.672Z,384
2019-02-02T07:51:50.680Z,396
2019-02-02T07:53:05.361Z,380
2019-02-02T07:54:50.723Z,332
2019-02-02T07:56:05.394Z,336
2019-02-02T07:56:50.753Z,352
2019-02-02T07:57:50.768Z,376
2019-02-02T07:58:50.767Z,392
2019-02-02T07:59:50.779Z,380
2019-02-02T08:00:50.789Z,348
2019-02-02T08:02:05.468Z,332
2019-02-02T08:03:05.479Z,332
2019-02-02T08:05:05.501Z,328
2019-02-02T08:05:50.852Z,336
2019-02-02T08:06:53.472Z,348
2019-02-02T08:07:50.875Z,372
2019-02-02T08:08:50.890Z,404
2019-02-02T08:11:50.938Z,624
2019-02-02T08:13:50.951Z,704
2019-02-02T08:14:50.961Z,680
2019-02-02T08:15:51.102Z,604
2019-02-02T08:16:52.626Z,508
2019-02-02T08:17:51.090Z,420
2019-02-02T08:18:51.019Z,392
2019-02-02T08:19:51.034Z,420
2019-02-02T08:20:51.039Z,512
2019-02-02T08:21:51.049Z,616
2019-02-02T08:23:05.727Z,756
2019-02-02T08:23:51.075Z,800
2019-02-02T08:24:51.087Z,820
2019-02-02T08:25:51.105Z,820
2019-02-02T08:26:51.214Z,800
2019-02-02T08:28:05.784Z,772
2019-02-02T08:28:51.137Z,744
2019-02-02T08:29:51.275Z,668
2019-02-02T08:30:59.444Z,620
2019-02-02T08:31:51.180Z,592
2019-02-02T08:33:05.852Z,612
2019-02-02T08:33:52.589Z,628
2019-02-02T08:34:51.238Z,636
2019-02-02T08:35:51.335Z,688
2019-02-02T08:36:50.993Z,728
2019-02-02T08:37:51.249Z,716
2019-02-02T08:38:51.266Z,668
2019-02-02T08:39:51.275Z,644
2019-02-02T08:40:51.287Z,656
2019-02-02T08:41:53.373Z,688
2019-02-02T08:42:51.461Z,744
2019-02-02T08:44:05.986Z,828
2019-02-02T08:44:51.335Z,852
2019-02-02T08:45:51.351Z,828
2019-02-02T08:46:51.358Z,772
2019-02-02T08:47:51.378Z,716
2019-02-02T08:48:51.499Z,696
2019-02-02T08:49:51.399Z,720
2019-02-02T08:51:06.076Z,792
2019-02-02T08:51:51.488Z,872
2019-02-02T08:52:51.449Z,916
2019-02-02T08:53:51.447Z,892
2019-02-02T08:54:51.716Z,836
2019-02-02T08:55:54.552Z,784
2019-02-02T08:56:51.665Z,756
2019-02-02T08:57:51.574Z,760
2019-02-02T08:58:51.513Z,792
2019-02-02T09:00:06.184Z,892
2019-02-02T09:00:51.284Z,952
2019-02-02T09:01:53.027Z,1040
2019-02-02T09:02:51.759Z,1060
2019-02-02T09:03:51.600Z,988
2019-02-02T09:04:51.813Z,888
2019-02-02T09:05:53.708Z,844
2019-02-02T09:06:51.605Z,824
2019-02-02T09:08:06.380Z,824
2019-02-02T09:08:51.629Z,840
2019-02-02T09:09:51.661Z,868
2019-02-02T09:10:51.665Z,872
2019-02-02T09:11:53.704Z,896
2019-02-02T09:13:06.345Z,972
2019-02-02T09:16:06.379Z,1172
2019-02-02T09:16:51.731Z,1224
2019-02-02T09:17:51.748Z,1264
2019-02-02T09:19:51.768Z,1376
2019-02-02T09:21:06.446Z,1440
2019-02-02T09:21:51.793Z,1416
2019-02-02T09:23:02.900Z,1312
2019-02-02T09:23:51.850Z,1168
2019-02-02T09:24:54.388Z,1068
2019-02-02T09:25:51.845Z,1060
2019-02-02T09:26:51.857Z,1128
2019-02-02T09:27:51.878Z,1260
2019-02-02T09:28:51.891Z,1348
2019-02-02T09:29:54.941Z,1400
2019-02-02T09:31:21.236Z,1536
2019-02-02T09:31:51.930Z,1548
2019-02-02T09:33:06.757Z,1588
2019-02-02T09:33:51.709Z,1544
2019-02-02T09:35:06.725Z,1348
2019-02-02T09:35:51.983Z,1296
2019-02-02T09:36:51.990Z,1256
2019-02-02T09:37:52.104Z,1316
2019-02-02T09:38:52.006Z,1436
2019-02-02T09:39:52.018Z,1712
2019-02-02T09:40:52.035Z,1928
2019-02-02T09:41:52.054Z,1992
2019-02-02T09:43:06.725Z,1892
2019-02-02T09:44:06.742Z,1756
2019-02-02T09:44:52.088Z,1648
2019-02-02T09:45:52.094Z,1508
2019-02-02T09:46:52.112Z,1440
2019-02-02T09:47:52.139Z,1356
2019-02-02T09:48:52.134Z,1284
2019-02-02T09:49:52.159Z,1320
2019-02-02T09:50:52.165Z,1400
2019-02-02T09:51:52.185Z,1452
2019-02-02T09:52:52.193Z,1544
2019-02-02T09:53:53.544Z,1536
2019-02-02T09:54:52.209Z,1456
2019-02-02T09:56:06.890Z,1372
2019-02-02T09:56:52.240Z,1340
2019-02-02T09:57:54.862Z,1352
2019-02-02T09:58:52.266Z,1424
2019-02-02T10:00:06.939Z,1552
2019-02-02T10:01:06.983Z,1620
2019-02-02T10:01:52.303Z,1616
2019-02-02T10:03:06.978Z,1748
2019-02-02T10:03:52.326Z,1868
2019-02-02T10:04:52.341Z,2040
2019-02-02T10:05:52.353Z,2136
2019-02-02T10:06:52.419Z,1940
2019-02-02T10:07:52.514Z,1740
2019-02-02T10:08:52.388Z,1636
2019-02-02T10:09:52.407Z,1612
2019-02-02T10:10:52.418Z,1624
2019-02-02T10:11:52.426Z,1652
2019-02-02T10:12:52.443Z,1600
2019-02-02T10:13:54.660Z,1548
2019-02-02T10:14:52.494Z,1572
2019-02-02T10:15:52.486Z,1644
2019-02-02T10:17:07.158Z,1748
2019-02-02T10:17:54.676Z,1724
2019-02-02T10:19:07.270Z,1576
2019-02-02T10:19:52.533Z,1512
2019-02-02T10:21:03.193Z,1472
2019-02-02T10:21:54.640Z,1416
2019-02-02T10:22:52.571Z,1320
2019-02-02T10:24:07.251Z,1224
2019-02-02T10:24:52.597Z,1228
2019-02-02T10:25:52.710Z,1256
2019-02-02T10:27:07.286Z,1256
2019-02-02T10:27:52.640Z,1244
2019-02-02T10:28:52.660Z,1216
2019-02-02T10:29:52.661Z,1220
2019-02-02T10:31:07.343Z,1252
2019-02-02T10:32:07.350Z,1284
2019-02-02T10:32:52.750Z,1288
2019-02-02T10:33:52.492Z,1268
2019-02-02T10:35:07.393Z,1232
2019-02-02T10:35:52.743Z,1244
2019-02-02T10:36:52.753Z,1268
2019-02-02T10:37:52.772Z,1296
2019-02-02T10:38:52.779Z,1336
2019-02-02T10:39:52.788Z,1372
2019-02-02T10:40:52.805Z,1432
2019-02-02T10:41:52.834Z,1520
2019-02-02T10:43:07.492Z,1516
2019-02-02T10:43:52.845Z,1456
2019-02-02T10:45:05.593Z,1316
2019-02-02T10:45:52.870Z,1264
2019-02-02T10:47:52.903Z,1308
2019-02-02T10:48:52.909Z,1312
2019-02-02T10:49:53.035Z,1228
2019-02-02T10:51:07.595Z,1072
2019-02-02T10:52:52.975Z,968
2019-02-02T10:53:52.972Z,1004
2019-02-02T10:54:52.993Z,1096
2019-02-02T10:55:52.998Z,1192
2019-02-02T10:56:53.105Z,1240
2019-02-02T10:57:53.089Z,1228
2019-02-02T10:58:53.037Z,1200
2019-02-02T11:00:10.850Z,1184
2019-02-02T11:01:07.736Z,1168
2019-02-02T11:01:58.337Z,1176
2019-02-02T11:02:53.095Z,1208
2019-02-02T11:03:53.103Z,1264
2019-02-02T11:04:56.054Z,1308
2019-02-02T11:06:08.098Z,1324
2019-02-02T11:06:53.030Z,1320
2019-02-02T11:07:56.767Z,1312
2019-02-02T11:09:07.782Z,1316
2019-02-02T11:09:53.260Z,1348
2019-02-02T11:10:53.706Z,1404
2019-02-02T11:11:53.511Z,1420
2019-02-02T11:12:53.342Z,1396
2019-02-02T11:13:53.285Z,1388
2019-02-02T11:14:53.522Z,1436
2019-02-02T11:15:53.343Z,1512
2019-02-02T11:16:53.291Z,1524
2019-02-02T11:17:53.809Z,1476
2019-02-02T11:18:53.556Z,1428
2019-02-02T11:19:53.479Z,1416
2019-02-02T11:20:53.622Z,1420
2019-02-02T11:21:53.768Z,1428
2019-02-02T11:23:08.547Z,1432
2019-02-02T11:23:53.820Z,1412
2019-02-02T11:24:53.526Z,1336
2019-02-02T11:25:53.790Z,1236
2019-02-02T11:26:53.794Z,1140
2019-02-02T11:28:08.220Z,1048
2019-02-02T11:28:53.638Z,1012
2019-02-02T11:29:54.046Z,972
2019-02-02T11:30:54.739Z,940
2019-02-02T11:32:53.479Z,932
2019-02-02T11:33:53.490Z,960
2019-02-02T11:36:08.182Z,1012
2019-02-02T11:36:53.534Z,1000
2019-02-02T11:38:08.216Z,992
2019-02-02T11:38:53.569Z,1000
2019-02-02T11:39:53.574Z,1024
2019-02-02T11:41:08.259Z,1056
2019-02-02T11:41:53.603Z,1080
2019-02-02T11:42:53.633Z,1108
2019-02-02T11:43:53.624Z,1112
2019-02-02T11:44:53.640Z,1108
2019-02-02T11:45:53.682Z,1076
2019-02-02T11:46:53.665Z,1040
2019-02-02T11:48:08.344Z,1008
2019-02-02T11:48:53.699Z,1000
2019-02-02T11:49:53.705Z,996
2019-02-02T11:50:53.490Z,1004
2019-02-02T11:51:53.730Z,1016
2019-02-02T11:52:53.865Z,1048
2019-02-02T11:54:08.644Z,1124
2019-02-02T11:54:53.782Z,1196
2019-02-02T11:56:53.806Z,1344
2019-02-02T11:57:57.014Z,1336
2019-02-02T11:58:53.822Z,1292
2019-02-02T12:00:08.499Z,1224
2019-02-02T12:00:53.938Z,1180
2019-02-02T12:01:53.872Z,1116
2019-02-02T12:02:56.827Z,1028
2019-02-02T12:03:53.903Z,944
2019-02-02T12:05:53.921Z,836
2019-02-02T12:06:56.332Z,808
2019-02-02T12:07:53.963Z,784
2019-02-02T12:08:56.555Z,776
2019-02-02T12:10:08.636Z,780
2019-02-02T12:10:53.976Z,784
2019-02-02T12:11:53.993Z,796
2019-02-02T12:12:54.012Z,828
2019-02-02T12:13:54.024Z,852
2019-02-02T12:14:56.763Z,896
2019-02-02T12:15:54.044Z,940
2019-02-02T12:16:54.064Z,952
2019-02-02T12:17:54.104Z,916
2019-02-02T12:18:54.085Z,876
2019-02-02T12:19:54.096Z,864
2019-02-02T12:20:54.128Z,892
2019-02-02T12:21:54.123Z,972
2019-02-02T12:22:54.142Z,1044
2019-02-02T12:23:54.177Z,1060
2019-02-02T12:26:23.508Z,1064
2019-02-02T12:26:54.191Z,1072
2019-02-02T12:27:54.229Z,1048
2019-02-02T12:28:54.347Z,980
2019-02-02T12:29:54.239Z,948
2019-02-02T12:30:54.261Z,948
2019-02-02T12:31:54.274Z,964
2019-02-02T12:33:54.337Z,1024
2019-02-02T12:35:54.315Z,1088
2019-02-02T12:36:54.177Z,1132
2019-02-02T12:37:54.464Z,1176
2019-02-02T12:39:09.013Z,1244
2019-02-02T12:39:54.364Z,1224
2019-02-02T12:41:09.046Z,1196
2019-02-02T12:41:54.396Z,1232
2019-02-02T12:42:54.405Z,1240
2019-02-02T12:43:54.423Z,1180
2019-02-02T12:44:54.440Z,1108
2019-02-02T12:45:54.445Z,1036
2019-02-02T12:46:54.460Z,972
2019-02-02T12:47:54.683Z,892
2019-02-02T12:48:54.489Z,816
2019-02-02T12:49:54.640Z,768
2019-02-02T12:50:54.522Z,736
2019-02-02T12:51:54.523Z,728
2019-02-02T12:53:09.203Z,736
2019-02-02T12:54:54.572Z,732
2019-02-02T12:55:54.336Z,732
2019-02-02T12:56:54.727Z,736
2019-02-02T12:57:54.652Z,748
2019-02-02T12:59:11.979Z,772
2019-02-02T12:59:54.633Z,792
2019-02-02T13:00:54.653Z,840
2019-02-02T13:01:54.661Z,904
2019-02-02T13:03:09.338Z,932
2019-02-02T13:04:08.039Z,888
2019-02-02T13:04:54.709Z,844
2019-02-02T13:06:09.375Z,784
2019-02-02T13:07:11.676Z,744
2019-02-02T13:07:54.741Z,712
2019-02-02T13:08:54.753Z,684
2019-02-02T13:10:54.779Z,612
2019-02-02T13:11:56.110Z,556
2019-02-02T13:13:24.137Z,484
2019-02-02T13:13:54.824Z,464
2019-02-02T13:14:54.841Z,432
2019-02-02T13:15:54.851Z,408
2019-02-02T13:16:59.823Z,396
2019-02-02T13:17:54.879Z,392
2019-02-02T13:18:54.903Z,396
2019-02-02T13:19:54.900Z,404
2019-02-02T13:20:54.940Z,416
2019-02-02T13:21:54.681Z,440
2019-02-02T13:22:54.705Z,460
2019-02-02T13:23:54.965Z,468
2019-02-02T13:25:09.634Z,468
2019-02-02T13:26:07.330Z,476
2019-02-02T13:27:55.019Z,468
2019-02-02T13:29:09.688Z,456
2019-02-02T13:29:56.835Z,456
2019-02-02T13:30:55.054Z,460
2019-02-02T13:31:55.064Z,468
2019-02-02T13:32:57.244Z,468
2019-02-02T13:33:55.089Z,476
2019-02-02T13:34:56.654Z,472
2019-02-02T13:35:55.122Z,480
2019-02-02T13:36:55.126Z,488
2019-02-02T13:37:54.916Z,492
2019-02-02T13:39:09.908Z,500
2019-02-02T13:39:55.172Z,492
2019-02-02T13:40:55.191Z,512
2019-02-02T13:42:09.857Z,532
2019-02-02T13:42:55.221Z,544
2019-02-02T13:43:55.223Z,580
2019-02-02T13:45:11.905Z,604
2019-02-02T13:45:55.260Z,600
2019-02-02T13:46:55.272Z,592
2019-02-02T13:47:55.286Z,588
2019-02-02T13:48:58.257Z,588
2019-02-02T13:49:55.440Z,584
2019-02-02T13:50:55.501Z,580
2019-02-02T13:51:55.333Z,576
2019-02-02T13:52:55.210Z,560
2019-02-02T13:53:55.359Z,548
2019-02-02T13:54:55.370Z,528
2019-02-02T13:55:55.385Z,512
2019-02-02T13:57:55.420Z,580
2019-02-02T13:58:55.422Z,608
2019-02-02T13:59:55.435Z,608
2019-02-02T14:01:10.113Z,624
2019-02-02T14:01:55.461Z,636
2019-02-02T14:03:06.892Z,664
2019-02-02T14:03:55.498Z,672
2019-02-02T14:04:55.510Z,692
2019-02-02T14:05:55.515Z,744
2019-02-02T14:06:55.534Z,764
2019-02-02T14:07:55.568Z,772
2019-02-02T14:09:10.221Z,732
2019-02-02T14:09:55.699Z,708
2019-02-02T14:10:55.602Z,676
2019-02-02T14:12:10.259Z,608
2019-02-02T14:13:10.275Z,564
2019-02-02T14:13:55.623Z,532
2019-02-02T14:14:55.654Z,496
2019-02-02T14:16:10.317Z,464
2019-02-02T14:16:55.665Z,432
2019-02-02T14:17:55.678Z,388
2019-02-02T14:18:55.698Z,364
2019-02-02T14:19:55.707Z,348
2019-02-02T14:20:55.714Z,328
2019-02-02T14:22:10.395Z,320
2019-02-02T14:23:10.411Z,316
2019-02-02T14:23:55.760Z,304
2019-02-02T14:24:55.774Z,312
2019-02-02T14:25:55.791Z,320
2019-02-02T14:27:10.465Z,368
2019-02-02T14:27:55.813Z,356
2019-02-02T14:29:10.486Z,380
2019-02-02T14:30:58.586Z,428
2019-02-02T14:32:57.415Z,460
2019-02-02T14:33:55.896Z,456
2019-02-02T14:34:55.917Z,452
2019-02-02T14:35:55.920Z,448
2019-02-02T14:37:55.958Z,428
2019-02-02T14:38:55.961Z,436
2019-02-02T14:39:56.574Z,444
2019-02-02T14:41:10.645Z,444
2019-02-02T14:41:56.005Z,464
2019-02-02T14:42:56.026Z,464
2019-02-02T14:43:58.181Z,460
2019-02-02T14:44:56.040Z,456
2019-02-02T14:46:56.104Z,424
2019-02-02T14:48:10.839Z,396
2019-02-02T14:48:56.152Z,392
2019-02-02T14:49:56.108Z,404
2019-02-02T14:50:56.119Z,352
2019-02-02T14:51:56.137Z,336
2019-02-02T14:52:56.164Z,340